Time;durP1;ratioP1;P1;durP2;ratioP2;P2;SDS_P1;SDS_P2;PMS_P1;PMS_P2;Temp;Humidity;BMP_temperature;BMP_pressure;BME280_temperature;BME280_humidity;BME280_pressure;Samples;Min_cycle;Max_cycle;Signal;HPM_P1;HPM_P2
2022/09/23 00:02:02;;;;;;;16.13;10.27;;;;;;;6.24;87.23;97874.03;10301631;28;20033;-62
2022/09/23 00:07:00;;;;;;;20.80;13.75;;;;;;;6.12;87.80;97869.53;10301669;28;20038;-62
2022/09/23 00:12:00;;;;;;;19.52;10.50;;;;;;;5.87;88.72;97858.75;10301421;28;20121;-62
2022/09/23 00:16:59;;;;;;;15.15;9.88;;;;;;;6.05;88.30;97898.59;10301001;28;20101;-62
2022/09/23 00:21:58;;;;;;;13.95;8.85;;;;;;;5.83;88.98;97869.81;10300878;28;20412;-62
2022/09/23 00:26:58;;;;;;;12.43;8.30;;;;;;;5.83;88.93;97885.28;10301252;28;20112;-62
2022/09/23 00:31:57;;;;;;;14.95;9.52;;;;;;;5.79;88.65;97885.19;10315415;28;20046;-62
2022/09/23 00:36:56;;;;;;;14.98;9.57;;;;;;;5.74;88.26;97882.50;10299133;28;20068;-62
2022/09/23 00:41:55;;;;;;;12.57;8.95;;;;;;;5.71;88.60;97883.31;10300034;28;20061;-62
2022/09/23 00:46:54;;;;;;;16.02;9.73;;;;;;;5.63;88.53;97878.88;10299792;28;20036;-62
2022/09/23 00:51:59;;;;;;;19.95;11.80;;;;;;;5.63;88.46;97881.47;10299779;28;20033;-62
2022/09/23 00:56:59;;;;;;;16.95;11.55;;;;;;;5.55;88.87;97873.56;10298998;28;20523;-62
2022/09/23 01:02:01;;;;;;;19.13;11.40;;;;;;;5.46;89.40;97884.56;10296048;28;20065;-62
2022/09/23 01:06:59;;;;;;;18.95;11.90;;;;;;;5.13;90.25;97867.53;10295467;28;20101;-62
2022/09/23 01:12:21;;;;;;;17.83;11.23;;;;;;;5.08;90.39;97892.28;10295380;28;20113;-62
2022/09/23 01:17:38;;;;;;;19.40;11.40;;;;;;;5.05;90.40;97888.78;10295318;28;20458;-63
2022/09/23 01:22:49;;;;;;;19.38;11.80;;;;;;;4.93;90.21;97873.91;10295116;28;20066;-63
2022/09/23 01:28:14;;;;;;;25.20;13.20;;;;;;;5.03;90.22;97883.59;10295007;28;20065;-62
2022/09/23 01:33:34;;;;;;;21.35;13.23;;;;;;;5.00;90.15;97890.38;10271281;28;20072;-62
2022/09/23 01:38:57;;;;;;;18.38;11.30;;;;;;;4.82;89.77;97859.91;10294174;28;20069;-62
2022/09/23 01:44:07;;;;;;;19.92;12.15;;;;;;;4.96;90.22;97889.41;10294188;28;20507;-62
2022/09/23 01:49:21;;;;;;;20.17;13.25;;;;;;;4.92;90.13;97890.13;10293506;28;20118;-63
2022/09/23 01:54:37;;;;;;;18.27;11.70;;;;;;;4.92;90.73;97891.03;10293737;28;20065;-62
2022/09/23 01:59:40;;;;;;;20.75;12.70;;;;;;;4.89;90.58;97884.94;10308594;28;20586;-62
2022/09/23 02:04:46;;;;;;;21.17;12.55;;;;;;;4.51;90.57;97830.94;10293769;28;20068;-62
2022/09/23 02:10:12;;;;;;;21.73;12.35;;;;;;;4.69;90.58;97854.50;10293034;28;20092;-62
2022/09/23 02:15:18;;;;;;;20.48;13.50;;;;;;;4.75;91.19;97873.47;10265002;28;20536;-62
2022/09/23 02:20:28;;;;;;;18.77;11.88;;;;;;;4.82;91.20;97888.19;10292782;28;20061;-62
2022/09/23 02:25:42;;;;;;;20.85;13.57;;;;;;;4.67;91.50;97884.44;10292402;28;20073;-62
2022/09/23 02:30:50;;;;;;;23.13;12.85;;;;;;;4.59;91.59;97885.06;10292563;28;20103;-62
2022/09/23 02:36:14;;;;;;;24.02;13.35;;;;;;;4.59;91.12;97891.06;10292339;28;20441;-62
2022/09/23 02:41:26;;;;;;;22.98;11.98;;;;;;;4.42;90.71;97879.53;10292097;28;20068;-62
2022/09/23 02:46:26;;;;;;;23.38;15.65;;;;;;;4.33;90.64;97874.16;10291885;28;20065;-62
2022/09/23 02:51:27;;;;;;;23.65;14.23;;;;;;;4.33;90.87;97885.28;10291797;28;20492;-62
2022/09/23 02:56:27;;;;;;;27.30;14.05;;;;;;;4.19;91.35;97856.66;10291842;28;20072;-62
2022/09/23 03:02:07;;;;;;;28.45;14.57;;;;;;;4.27;91.71;97890.28;10291294;28;20068;-62
2022/09/23 03:07:15;;;;;;;26.57;14.63;;;;;;;4.27;92.23;97886.00;10291208;28;20594;-62
2022/09/23 03:12:34;;;;;;;26.45;16.83;;;;;;;4.29;91.92;97899.75;10291909;28;20483;-62
2022/09/23 03:17:42;;;;;;;22.57;12.63;;;;;;;4.05;91.74;97901.66;10291830;28;20076;-62
2022/09/23 03:22:48;;;;;;;22.73;12.98;;;;;;;3.92;91.84;97902.19;10290988;28;20073;-62
2022/09/23 03:27:47;;;;;;;21.05;13.07;;;;;;;3.01;91.34;97755.97;10306168;28;20087;-62
2022/09/23 03:32:46;;;;;;;27.25;13.20;;;;;;;3.92;91.35;97923.59;10290983;28;20026;-62
2022/09/23 03:37:54;;;;;;;24.13;12.90;;;;;;;3.76;91.31;97891.47;10291878;28;20092;-62
2022/09/23 03:42:56;;;;;;;19.73;11.30;;;;;;;3.82;91.45;97912.19;10291153;28;20072;-62
2022/09/23 03:47:55;;;;;;;21.27;12.05;;;;;;;3.23;91.50;97834.38;10290777;28;20065;-62
2022/09/23 03:52:54;;;;;;;17.98;11.23;;;;;;;3.79;91.46;97934.31;10290622;28;20065;-62
2022/09/23 03:57:54;;;;;;;20.92;12.38;;;;;;;3.81;91.09;97932.69;10290666;28;20520;-62
2022/09/23 04:02:53;;;;;;;18.40;11.48;;;;;;;3.82;91.23;97932.72;10290549;28;20069;-62
2022/09/23 04:07:52;;;;;;;21.10;11.63;;;;;;;3.82;91.25;97931.84;10303998;28;20128;-62
2022/09/23 04:12:51;;;;;;;20.40;11.55;;;;;;;3.83;91.29;97934.47;10294013;28;20026;-62
2022/09/23 04:17:50;;;;;;;22.05;13.18;;;;;;;3.75;91.34;97927.34;10294158;28;20034;-62
2022/09/23 04:22:49;;;;;;;31.20;18.52;;;;;;;3.65;92.51;97949.31;10296936;28;20508;-62
2022/09/23 04:27:48;;;;;;;30.33;17.30;;;;;;;3.35;92.28;97916.78;10287359;28;20053;-63
2022/09/23 04:32:46;;;;;;;29.75;17.08;;;;;;;3.42;92.48;97952.09;10293919;28;20042;-63
2022/09/23 04:37:47;;;;;;;27.60;15.45;;;;;;;3.36;92.19;97951.03;10284842;28;20485;-63
2022/09/23 04:42:45;;;;;;;25.23;14.45;;;;;;;3.40;91.67;97964.00;10269838;28;20546;-63
2022/09/23 04:47:44;;;;;;;23.30;13.52;;;;;;;3.32;91.25;97968.00;10284362;28;20536;-63
2022/09/23 04:52:43;;;;;;;31.00;14.27;;;;;;;3.24;91.39;97964.34;10294908;28;20100;-63
2022/09/23 04:57:43;;;;;;;23.77;14.30;;;;;;;3.30;91.17;97976.47;10292209;28;20041;-63
2022/09/23 05:02:46;;;;;;;23.85;14.05;;;;;;;3.38;91.07;97987.88;10307417;28;20081;-63
2022/09/23 05:07:47;;;;;;;26.85;14.52;;;;;;;3.30;91.74;97985.03;10294034;28;20513;-63
2022/09/23 05:12:46;;;;;;;38.00;15.65;;;;;;;3.28;91.36;97976.41;10297186;28;20057;-63
2022/09/23 05:17:45;;;;;;;52.17;19.83;;;;;;;3.41;91.67;97981.13;10296761;28;20065;-63
2022/09/23 05:22:44;;;;;;;39.33;17.77;;;;;;;3.72;91.68;97994.00;10294984;28;20076;-63
2022/09/23 05:27:43;;;;;;;37.83;20.15;;;;;;;3.73;92.77;97983.78;10293743;28;20065;-63
2022/09/23 05:32:42;;;;;;;38.03;22.33;;;;;;;4.00;92.38;97993.13;10292577;28;20113;-63
2022/09/23 05:37:41;;;;;;;36.22;21.27;;;;;;;4.31;92.62;97988.84;10305034;28;20062;-63
2022/09/23 05:42:40;;;;;;;34.88;18.77;;;;;;;4.55;92.58;97994.66;10295687;28;20030;-63
2022/09/23 05:47:39;;;;;;;37.60;19.00;;;;;;;4.65;93.05;97970.91;10296943;28;20065;-63
2022/09/23 05:52:38;;;;;;;32.63;17.55;;;;;;;4.94;92.69;97981.09;10295744;28;20034;-63
2022/09/23 05:57:37;;;;;;;29.48;17.85;;;;;;;5.08;92.43;97966.00;10294846;28;20037;-63
2022/09/23 06:02:36;;;;;;;38.72;18.98;;;;;;;5.31;92.14;97972.56;10287957;28;20865;-63
2022/09/23 06:07:36;;;;;;;36.90;17.85;;;;;;;5.44;91.83;97965.09;10289364;28;20557;-63
2022/09/23 06:12:35;;;;;;;34.17;16.88;;;;;;;5.79;91.72;97976.22;10300929;28;20065;-63
2022/09/23 06:17:34;;;;;;;20.67;13.70;;;;;;;5.82;92.22;97971.13;10289388;28;20041;-63
2022/09/23 06:22:33;;;;;;;23.77;14.30;;;;;;;5.88;91.61;97967.78;10292550;28;20026;-63
2022/09/23 06:27:32;;;;;;;30.23;15.95;;;;;;;6.03;91.48;97972.41;10292769;28;20038;-63
2022/09/23 06:32:32;;;;;;;24.65;14.52;;;;;;;6.16;91.97;97969.22;10292291;28;20076;-63
2022/09/23 06:37:31;;;;;;;27.85;15.30;;;;;;;6.31;91.16;97973.81;10291331;28;20065;-63
2022/09/23 06:42:30;;;;;;;;;;;;;;;6.51;91.12;97975.03;10292743;28;20073;-64
2022/09/23 06:47:29;;;;;;;25.48;15.27;;;;;;;6.67;90.34;97972.75;10291956;28;19979;-64
2022/09/23 06:52:28;;;;;;;19.15;13.93;;;;;;;6.73;90.28;97968.59;10292229;28;20044;-64
2022/09/23 06:57:31;;;;;;;21.33;13.95;;;;;;;7.05;90.04;97988.88;10292248;28;20029;-64
2022/09/23 07:02:30;;;;;;;18.23;12.60;;;;;;;7.17;88.78;97985.63;10305119;28;20143;-64
2022/09/23 07:07:30;;;;;;;18.17;12.35;;;;;;;7.38;88.63;97990.25;10279695;28;20085;-64
2022/09/23 07:12:29;;;;;;;17.45;12.13;;;;;;;7.48;88.29;97968.97;10292541;28;20073;-64
2022/09/23 07:17:29;;;;;;;19.58;12.70;;;;;;;7.94;87.40;98000.56;10292106;28;20034;-64
2022/09/23 07:22:28;;;;;;;17.88;11.80;;;;;;;8.17;86.57;98005.19;10290988;28;20504;-64
2022/09/23 07:27:27;;;;;;;16.15;11.25;;;;;;;8.45;85.93;97996.91;10285735;28;20072;-62
2022/09/23 07:32:26;;;;;;;18.27;11.50;;;;;;;8.61;84.29;97972.06;10292166;28;20065;-64
2022/09/23 07:37:25;;;;;;;16.00;10.98;;;;;;;8.95;82.80;97993.13;10292101;28;20038;-63
2022/09/23 07:42:24;;;;;;;18.30;11.35;;;;;;;9.18;80.05;97987.25;10289914;28;20118;-63
2022/09/23 07:47:23;;;;;;;14.57;10.10;;;;;;;9.53;79.51;97993.59;10294388;28;20113;-62
2022/09/23 07:52:22;;;;;;;13.02;10.02;;;;;;;9.78;76.83;97973.03;10314567;28;20029;-62
2022/09/23 07:57:21;;;;;;;12.25;8.98;;;;;;;10.10;73.46;97973.19;10300442;28;20053;-62
2022/09/23 08:02:20;;;;;;;10.23;6.25;;;;;;;10.57;68.00;97980.28;10295542;28;20077;-62
2022/09/23 08:07:19;;;;;;;6.07;3.90;;;;;;;10.82;65.11;97972.53;10303406;28;20108;-62
2022/09/23 08:12:19;;;;;;;6.13;3.88;;;;;;;11.13;65.89;97976.06;10318208;28;20165;-62
2022/09/23 08:17:18;;;;;;;5.35;2.33;;;;;;;11.43;60.68;97982.09;10300139;28;20493;-63
2022/09/23 08:22:18;;;;;;;3.00;2.28;;;;;;;11.56;57.56;97980.38;10299267;28;20064;-63
2022/09/23 08:27:17;;;;;;;3.63;2.40;;;;;;;11.89;58.72;97982.91;10299347;28;20065;-63
2022/09/23 08:32:16;;;;;;;2.50;2.10;;;;;;;12.15;56.60;97976.75;10299617;28;20044;-64
2022/09/23 08:37:15;;;;;;;2.28;2.08;;;;;;;12.28;56.83;97944.66;10298755;28;20100;-63
2022/09/23 08:42:26;;;;;;;3.85;2.20;;;;;;;12.56;53.13;97961.88;10297096;28;20034;-64
2022/09/23 08:47:43;;;;;;;2.33;1.92;;;;;;;12.66;52.65;97945.31;10296179;28;20073;-63
2022/09/23 08:52:49;;;;;;;3.00;2.20;;;;;;;12.90;52.61;97971.16;10297404;28;20069;-63
2022/09/23 08:58:20;;;;;;;2.20;2.00;;;;;;;13.03;50.58;97961.53;10297490;28;20072;-63
2022/09/23 09:03:25;;;;;;;2.67;1.83;;;;;;;13.31;50.50;97930.06;10295679;28;20497;-62
2022/09/23 09:08:30;;;;;;;2.22;1.85;;;;;;;13.76;48.22;97953.97;10294094;28;20598;-63
2022/09/23 09:13:31;;;;;;;3.22;2.05;;;;;;;14.34;47.13;97945.44;10295274;28;20077;-64
2022/09/23 09:18:33;;;;;;;3.75;2.20;;;;;;;14.99;45.70;97942.81;10295292;28;20057;-64
2022/09/23 09:23:54;;;;;;;2.65;2.25;;;;;;;15.28;45.60;97953.69;10294993;28;20064;-63
2022/09/23 09:29:17;;;;;;;2.22;1.98;;;;;;;15.16;44.35;97953.00;10309659;28;20081;-63
2022/09/23 09:34:20;;;;;;;4.35;2.08;;;;;;;15.02;44.63;97947.13;10294114;28;20500;-61
2022/09/23 09:39:19;;;;;;;4.85;2.63;;;;;;;15.40;45.85;97946.50;10295234;28;20490;-62
2022/09/23 09:44:36;;;;;;;;;;;;;;;15.54;44.42;97950.63;10294168;28;20512;-62
2022/09/23 09:49:44;;;;;;;2.55;2.30;;;;;;;15.65;43.84;97954.78;10293855;28;19960;-62
2022/09/23 09:54:43;;;;;;;3.53;2.25;;;;;;;15.58;42.87;97957.53;10304835;28;20065;-62
2022/09/23 09:59:43;;;;;;;;;;;;;;;15.67;42.66;97947.75;10334230;28;20037;-62
2022/09/23 10:04:42;;;;;;;4.03;2.10;;;;;;;16.12;43.80;97946.94;10333822;28;19953;-62
2022/09/23 10:09:49;;;;;;;2.03;1.58;;;;;;;16.49;42.40;97922.59;10333783;28;20393;-62
2022/09/23 10:14:54;;;;;;;5.78;2.70;;;;;;;16.61;41.54;97924.09;10318252;28;20547;-62
2022/09/23 10:19:59;;;;;;;3.75;2.08;;;;;;;16.61;40.49;97943.28;10308144;28;20592;-62
2022/09/23 10:25:15;;;;;;;4.15;2.38;;;;;;;15.88;41.26;97929.97;10291419;28;20077;-62
2022/09/23 10:30:26;;;;;;;1.90;1.60;;;;;;;15.63;40.98;97937.38;10278870;28;20069;-62
2022/09/23 10:35:25;;;;;;;2.72;1.88;;;;;;;15.62;41.68;97901.63;10292245;28;20065;-62
2022/09/23 10:51:22;;;;;;;3.47;1.90;;;;;;;17.34;40.08;97914.47;10292671;28;20061;-62
2022/09/23 10:56:34;;;;;;;2.03;1.85;;;;;;;17.24;40.60;97899.88;10291337;28;20630;-62
2022/09/23 11:01:51;;;;;;;2.75;1.73;;;;;;;17.13;39.74;97907.16;10291705;28;20484;-62
2022/09/23 11:07:17;;;;;;;6.68;3.17;;;;;;;16.66;39.39;97896.88;10291205;28;20175;-62
2022/09/23 11:12:36;;;;;;;3.63;1.65;;;;;;;16.25;39.95;97897.78;10290536;28;20139;-62
2022/09/23 11:18:01;;;;;;;2.50;1.50;;;;;;;16.37;40.37;97896.66;10290420;28;20124;-62
2022/09/23 11:23:20;;;;;;;1.60;1.50;;;;;;;16.47;39.85;97857.13;10290239;28;20104;-62
2022/09/23 11:28:47;;;;;;;3.70;1.55;;;;;;;17.05;38.92;97883.75;10290871;28;20061;-62
2022/09/23 11:34:33;;;;;;;1.70;1.60;;;;;;;17.06;38.62;97871.50;10290155;28;20073;-62
2022/09/23 11:40:00;;;;;;;2.25;1.50;;;;;;;17.39;37.96;97876.78;10278751;28;20074;-62
2022/09/23 11:45:13;;;;;;;2.80;1.77;;;;;;;17.21;37.06;97865.84;10290584;28;20077;-62
2022/09/23 11:50:36;;;;;;;1.60;1.50;;;;;;;16.77;36.78;97874.78;10290978;28;20065;-62
2022/09/23 11:55:43;;;;;;;1.60;1.50;;;;;;;16.27;37.32;97857.56;10290658;28;20489;-62
2022/09/23 12:00:51;;;;;;;1.55;1.45;;;;;;;16.40;38.01;97852.94;10290640;28;20072;-62
2022/09/23 12:06:01;;;;;;;1.80;1.43;;;;;;;16.69;38.13;97852.25;10289512;28;20112;-62
2022/09/23 12:11:22;;;;;;;1.63;1.52;;;;;;;17.07;35.85;97847.84;10290184;28;20072;-62
2022/09/23 12:16:42;;;;;;;1.42;1.33;;;;;;;16.94;34.63;97841.22;10289180;28;20476;-62
2022/09/23 12:22:16;;;;;;;2.25;1.65;;;;;;;17.00;35.62;97834.94;10290726;28;20710;-62
2022/09/23 12:27:33;;;;;;;2.30;1.73;;;;;;;16.87;36.07;97832.63;10291902;28;20285;-62
2022/09/23 12:32:32;;;;;;;2.15;1.63;;;;;;;16.45;35.80;97821.41;10306623;28;20069;-62
2022/09/23 12:37:35;;;;;;;1.60;1.50;;;;;;;16.59;36.03;97808.84;10291702;28;20540;-62
2022/09/23 12:42:42;;;;;;;1.92;1.42;;;;;;;16.76;35.27;97799.69;10294248;28;20493;-62
2022/09/23 12:47:43;;;;;;;3.55;1.52;;;;;;;17.06;35.21;97787.59;10292003;28;20062;-62
2022/09/23 12:52:41;;;;;;;5.13;2.60;;;;;;;17.49;35.04;97797.75;10296228;28;20129;-62
2022/09/23 12:57:41;;;;;;;3.70;1.75;;;;;;;17.77;34.42;97804.88;10296683;28;20041;-62
2022/09/23 13:02:46;;;;;;;4.88;2.10;;;;;;;18.07;35.48;97800.47;10295651;28;20062;-63
2022/09/23 13:07:47;;;;;;;2.58;1.65;;;;;;;18.21;34.72;97780.81;10273177;28;20113;-63
2022/09/23 13:12:47;;;;;;;2.33;1.50;;;;;;;18.30;34.92;97780.53;10293090;28;20080;-63
2022/09/23 13:17:46;;;;;;;1.98;1.75;;;;;;;18.17;33.56;97811.56;10297174;28;20060;-63
2022/09/23 13:22:48;;;;;;;3.92;2.10;;;;;;;18.09;34.27;97809.19;10297012;28;20026;-63
2022/09/23 13:27:51;;;;;;;4.80;1.75;;;;;;;18.01;34.07;97810.31;10297082;28;20068;-62
2022/09/23 13:33:38;;;;;;;2.55;1.90;;;;;;;17.73;34.79;97811.97;10312218;28;20135;-62
2022/09/23 13:38:37;;;;;;;2.92;1.70;;;;;;;17.60;35.82;97810.59;10211063;28;20066;-62
2022/09/23 13:43:38;;;;;;;2.67;1.80;;;;;;;17.76;36.87;97811.91;10250280;28;20046;-62
2022/09/23 13:48:39;;;;;;;2.88;1.73;;;;;;;18.00;35.76;97814.69;10255287;28;20085;-62
2022/09/23 13:53:38;;;;;;;2.03;1.85;;;;;;;18.18;35.29;97810.66;10256021;28;20076;-63
2022/09/23 13:58:37;;;;;;;2.92;2.60;;;;;;;17.97;33.79;97801.69;10256175;28;20038;-62
2022/09/23 14:03:38;;;;;;;1.92;1.70;;;;;;;17.86;33.12;97774.88;10253093;28;20080;-62
2022/09/23 14:08:39;;;;;;;1.63;1.52;;;;;;;17.47;33.50;97775.09;10252732;28;20096;-62
2022/09/23 14:13:41;;;;;;;2.53;1.90;;;;;;;17.39;34.07;97800.69;10251287;28;20096;-62
2022/09/23 14:18:46;;;;;;;4.05;1.77;;;;;;;16.96;35.79;97807.06;10250892;28;20061;-62
2022/09/23 14:23:45;;;;;;;2.20;2.00;;;;;;;16.33;36.96;97725.66;10250908;28;20069;-62
2022/09/23 14:28:46;;;;;;;1.63;1.52;;;;;;;16.61;37.32;97803.56;10251960;28;20105;-62
2022/09/23 14:33:45;;;;;;;3.80;2.15;;;;;;;16.49;37.79;97786.38;10252314;28;20069;-62
2022/09/23 14:38:50;;;;;;;2.15;1.88;;;;;;;16.52;37.72;97808.13;10252176;28;20065;-62
2022/09/23 14:43:57;;;;;;;3.55;2.15;;;;;;;16.32;37.85;97814.72;10251710;28;20077;-63
2022/09/23 14:48:56;;;;;;;2.95;2.20;;;;;;;16.06;38.39;97813.53;10250782;28;20078;-62
2022/09/23 14:54:15;;;;;;;;;;;;;;;15.94;38.75;97806.81;10249564;28;20105;-63
2022/09/23 14:59:47;;;;;;;3.40;2.17;;;;;;;16.06;39.60;97811.78;10234836;28;19956;-63
2022/09/23 15:04:46;;;;;;;3.38;1.95;;;;;;;15.98;39.37;97811.09;10203850;28;20062;-63
2022/09/23 15:09:45;;;;;;;;;;;;;;;15.84;40.00;97818.41;10251146;28;20062;-62
2022/09/23 15:14:49;;;;;;;6.07;3.42;;;;;;;15.83;40.38;97812.31;10249017;28;19917;-62
2022/09/23 15:19:58;;;;;;;4.68;2.90;;;;;;;15.78;41.23;97818.47;10263507;28;20109;-62
2022/09/23 15:25:19;;;;;;;8.05;3.17;;;;;;;15.73;41.41;97817.72;10286741;28;20065;-62
2022/09/23 15:30:19;;;;;;;5.28;3.10;;;;;;;15.74;41.26;97812.47;10289700;28;20077;-62
2022/09/23 15:35:21;;;;;;;6.60;3.50;;;;;;;15.57;40.97;97804.94;10289858;28;20490;-62
2022/09/23 15:40:24;;;;;;;4.47;2.80;;;;;;;15.75;41.04;97818.56;10289463;28;20061;-62
2022/09/23 15:45:42;;;;;;;4.40;3.03;;;;;;;15.76;42.56;97821.13;10287998;28;20072;-62
2022/09/23 15:50:44;;;;;;;10.13;3.83;;;;;;;15.54;41.92;97814.63;10285382;28;20057;-62
2022/09/23 15:55:43;;;;;;;6.78;3.67;;;;;;;15.59;42.83;97818.00;10288142;28;20060;-62
2022/09/23 16:00:43;;;;;;;8.88;4.90;;;;;;;15.42;43.06;97819.19;10292974;28;20053;-62
2022/09/23 16:05:45;;;;;;;8.88;4.57;;;;;;;15.41;43.62;97846.25;10293844;28;20062;-62
2022/09/23 16:10:45;;;;;;;8.40;4.53;;;;;;;15.07;44.66;97814.63;10300860;28;20378;-61
2022/09/23 16:15:44;;;;;;;8.35;4.70;;;;;;;14.98;46.46;97846.16;10301138;28;20026;-62
2022/09/23 16:20:44;;;;;;;;;;;;;;;14.71;47.50;97864.00;10295066;28;20034;-62
2022/09/23 16:25:43;;;;;;;9.70;4.63;;;;;;;14.49;48.23;97857.34;10299371;28;19960;-62
2022/09/23 16:30:42;;;;;;;6.80;3.80;;;;;;;14.13;48.63;97838.72;10298805;28;20072;-61
2022/09/23 16:35:41;;;;;;;9.18;5.88;;;;;;;14.02;49.54;97857.13;10298939;28;20036;-61
2022/09/23 16:40:40;;;;;;;8.00;5.78;;;;;;;13.87;49.83;97855.59;10300053;28;20030;-62
2022/09/23 16:45:39;;;;;;;9.85;4.25;;;;;;;13.67;50.11;97857.56;10298560;28;20485;-62
2022/09/23 16:50:39;;;;;;;6.50;3.97;;;;;;;13.40;50.41;97830.03;10296748;28;20500;-62
2022/09/23 16:55:38;;;;;;;7.05;4.70;;;;;;;13.35;50.61;97837.91;10297686;28;20397;-62
2022/09/23 17:05:54;;;;;;;8.05;4.47;;;;;;;13.19;51.19;97847.63;10293950;28;20077;-62
2022/09/23 17:10:57;;;;;;;8.00;4.78;;;;;;;13.24;50.70;97865.84;10293363;28;20061;-62
2022/09/23 17:15:57;;;;;;;8.50;4.88;;;;;;;13.29;51.03;97877.06;10293601;28;20061;-62
2022/09/23 17:20:58;;;;;;;9.48;6.20;;;;;;;13.35;51.58;97895.25;10292561;28;20083;-62
2022/09/23 17:25:58;;;;;;;8.65;6.38;;;;;;;13.25;52.16;97896.22;10292542;28;20505;-61
2022/09/23 17:31:00;;;;;;;12.65;6.45;;;;;;;13.18;52.54;97903.22;10293514;28;20057;-61
2022/09/23 17:36:00;;;;;;;9.60;6.20;;;;;;;13.15;53.06;97914.53;10292657;28;20481;-60
2022/09/23 17:40:59;;;;;;;12.70;8.45;;;;;;;12.88;53.43;97884.41;10291234;28;20611;-61
2022/09/23 17:46:13;;;;;;;17.63;8.73;;;;;;;12.94;53.60;97925.16;10291762;28;20471;-61
2022/09/23 17:51:13;;;;;;;12.05;7.50;;;;;;;12.87;54.78;97926.06;10291406;28;20064;-61
2022/09/23 17:56:20;;;;;;;14.30;9.52;;;;;;;12.75;54.19;97936.56;10285888;28;20042;-60
2022/09/23 18:01:24;;;;;;;13.27;8.82;;;;;;;12.62;54.69;97933.19;10290673;28;20129;-61
2022/09/23 18:06:25;;;;;;;14.15;9.27;;;;;;;12.57;55.21;97935.81;10291931;28;20100;-61
2022/09/23 18:11:26;;;;;;;18.60;9.25;;;;;;;12.49;55.30;97941.06;10290820;28;20516;-61
2022/09/23 18:16:32;;;;;;;12.40;7.72;;;;;;;12.21;55.28;97916.91;10291164;28;20064;-61
2022/09/23 18:21:34;;;;;;;12.05;8.07;;;;;;;12.29;55.65;97951.56;10290045;28;20607;-60
2022/09/23 18:26:33;;;;;;;16.55;9.90;;;;;;;11.94;56.21;97911.81;10283181;28;20153;-61
2022/09/23 18:31:34;;;;;;;18.58;10.82;;;;;;;11.98;56.67;97945.59;10291632;28;20065;-62
2022/09/23 18:36:33;;;;;;;16.92;8.18;;;;;;;11.78;57.49;97961.28;10290885;28;20068;-62
2022/09/23 18:41:32;;;;;;;;;;;;;;;11.70;58.00;97963.00;10288650;28;20581;-62
2022/09/23 18:46:31;;;;;;;13.10;8.30;;;;;;;11.55;58.80;97968.22;10291195;28;19964;-61
2022/09/23 18:51:33;;;;;;;15.57;8.50;;;;;;;11.28;59.17;97946.63;10290365;28;20080;-61
2022/09/23 18:56:39;;;;;;;20.10;10.82;;;;;;;11.06;60.75;97947.47;10284910;28;20065;-61
2022/09/23 19:01:38;;;;;;;17.35;11.65;;;;;;;10.93;61.78;97951.81;10253807;28;20054;-62
2022/09/23 19:06:37;;;;;;;27.02;17.25;;;;;;;10.73;64.73;97970.81;10252635;28;20089;-61
2022/09/23 19:11:37;;;;;;;20.52;14.05;;;;;;;10.69;65.01;97981.19;10252923;28;20073;-61
2022/09/23 19:16:38;;;;;;;23.17;13.23;;;;;;;10.65;65.16;97989.81;10252611;28;20058;-62
2022/09/23 19:21:38;;;;;;;15.43;9.25;;;;;;;10.58;64.53;97978.53;10251884;28;20066;-62
2022/09/23 19:26:39;;;;;;;21.42;11.63;;;;;;;10.49;65.21;97984.56;10251507;28;20035;-62
2022/09/23 19:31:39;;;;;;;13.93;9.68;;;;;;;10.11;65.48;97946.41;10284226;28;20061;-62
2022/09/23 19:36:41;;;;;;;12.02;6.55;;;;;;;10.13;65.35;97968.03;10292683;28;20073;-62
2022/09/23 19:41:39;;;;;;;10.57;6.43;;;;;;;10.10;65.92;98001.72;10292024;28;20061;-62
2022/09/23 19:46:43;;;;;;;10.55;6.70;;;;;;;9.95;66.73;98005.09;10300310;28;20033;-62
2022/09/23 19:51:43;;;;;;;10.63;6.65;;;;;;;9.75;67.72;98002.41;10298547;28;20069;-62
2022/09/23 19:56:41;;;;;;;11.93;7.20;;;;;;;9.56;69.02;98003.13;10300277;28;20045;-62
2022/09/23 20:01:40;;;;;;;11.90;8.02;;;;;;;9.41;69.79;98003.88;10312266;28;20104;-62
2022/09/23 20:06:39;;;;;;;13.15;8.13;;;;;;;9.06;70.49;97960.41;10295719;28;20054;-62
2022/09/23 20:11:41;;;;;;;18.65;12.65;;;;;;;9.06;71.88;98000.97;10311443;28;20496;-62
2022/09/23 20:16:40;;;;;;;24.30;13.65;;;;;;;9.11;73.06;98009.63;10296039;28;20068;-62
2022/09/23 20:21:39;;;;;;;20.13;12.75;;;;;;;9.05;72.90;98014.78;10295753;28;20068;-61
2022/09/23 20:31:58;;;;;;;27.83;19.15;;;;;;;8.84;73.79;98012.84;10297023;28;20088;-62
2022/09/23 20:36:58;;;;;;;18.75;13.20;;;;;;;8.69;73.81;98005.78;10297346;28;20049;-62
2022/09/23 20:41:57;;;;;;;14.00;8.32;;;;;;;8.67;73.33;98025.63;10296289;28;20057;-62
2022/09/23 20:46:56;;;;;;;12.40;8.60;;;;;;;8.41;72.47;97995.16;10297275;28;20065;-62
2022/09/23 20:51:55;;;;;;;17.38;11.02;;;;;;;8.47;73.44;98036.59;10295867;28;20113;-62
2022/09/23 20:56:53;;;;;;;20.60;13.07;;;;;;;8.21;76.61;98040.56;10294700;28;20025;-62
2022/09/23 21:01:57;;;;;;;18.55;12.70;;;;;;;8.05;77.96;98042.94;10310553;28;20040;-62
2022/09/23 21:06:57;;;;;;;16.23;10.50;;;;;;;7.94;78.09;98044.50;10294781;28;20509;-62
2022/09/23 21:11:56;;;;;;;14.50;10.40;;;;;;;7.86;77.63;98030.63;10295330;28;20070;-62
2022/09/23 21:16:56;;;;;;;;;;;;;;;7.95;77.66;98048.84;10294768;28;20065;-62
2022/09/23 21:21:54;;;;;;;17.97;11.47;;;;;;;7.81;77.34;98053.81;10294775;28;20345;-62
2022/09/23 21:26:53;;;;;;;19.02;12.73;;;;;;;7.74;77.71;98045.97;10295073;28;20306;-62
2022/09/23 21:31:52;;;;;;;27.63;19.10;;;;;;;7.54;79.11;98043.91;10295245;28;20041;-62
2022/09/23 21:36:51;;;;;;;29.92;18.70;;;;;;;7.34;79.67;98032.41;10294734;28;20076;-62
2022/09/23 21:41:50;;;;;;;23.13;16.42;;;;;;;7.42;79.73;98056.63;10294802;28;20092;-62
2022/09/23 21:46:49;;;;;;;23.98;14.48;;;;;;;7.37;80.57;98045.34;10303672;28;20128;-62
2022/09/23 21:51:57;;;;;;;18.80;13.55;;;;;;;7.29;80.23;98041.75;10292958;28;20069;-62
2022/09/23 21:56:56;;;;;;;19.65;14.00;;;;;;;7.24;80.18;98049.41;10292493;28;20061;-62
2022/09/23 22:01:55;;;;;;;17.20;12.32;;;;;;;7.24;79.75;98055.47;10295549;28;20034;-61
2022/09/23 22:06:54;;;;;;;18.20;11.93;;;;;;;6.75;80.42;97982.38;10295175;28;20128;-62
2022/09/23 22:12:07;;;;;;;16.02;10.20;;;;;;;6.80;80.37;98003.94;10295365;28;20042;-61
2022/09/23 22:17:09;;;;;;;15.30;9.93;;;;;;;7.00;80.77;98052.44;10291891;28;20061;-62
2022/09/23 22:22:13;;;;;;;17.25;10.50;;;;;;;6.85;80.98;98049.59;10291904;28;20509;-62
2022/09/23 22:27:15;;;;;;;18.10;11.23;;;;;;;6.84;80.96;98061.59;10292988;28;20065;-61
2022/09/23 22:37:33;;;;;;;23.17;14.75;;;;;;;6.65;80.93;98062.97;10295999;28;20034;-61
2022/09/23 22:42:33;;;;;;;23.35;14.35;;;;;;;6.59;80.77;98065.44;10295793;28;20068;-62
2022/09/23 22:47:37;;;;;;;23.45;14.77;;;;;;;6.55;81.26;98073.97;10296062;28;20064;-62
2022/09/23 22:52:36;;;;;;;21.58;12.93;;;;;;;6.43;82.33;98061.69;10294138;28;20048;-61
2022/09/23 22:57:35;;;;;;;20.95;14.10;;;;;;;6.44;81.95;98063.41;10294639;28;20026;-61
2022/09/23 23:02:35;;;;;;;19.98;13.38;;;;;;;6.25;82.21;98043.28;10291711;28;20057;-62
2022/09/23 23:07:35;;;;;;;22.00;14.27;;;;;;;6.00;82.95;98018.69;10291413;28;20073;-62
2022/09/23 23:12:33;;;;;;;;;;;;;;;6.19;83.47;98072.38;10292112;28;20053;-62
2022/09/23 23:17:33;;;;;;;16.63;11.15;;;;;;;6.07;83.82;98051.47;10290808;28;19999;-61
2022/09/23 23:22:32;;;;;;;18.35;12.35;;;;;;;6.09;83.31;98057.53;10290177;28;20065;-61
2022/09/23 23:27:31;;;;;;;17.75;12.23;;;;;;;5.85;83.43;98045.00;10307086;28;20125;-61
2022/09/23 23:32:30;;;;;;;16.13;11.70;;;;;;;5.85;83.83;98076.75;10291241;28;20042;-61
2022/09/23 23:37:29;;;;;;;17.05;11.35;;;;;;;5.63;84.26;98039.34;10306145;28;20030;-62
2022/09/23 23:42:28;;;;;;;22.40;13.23;;;;;;;5.64;84.03;98051.38;10291434;28;20030;-62
2022/09/23 23:47:27;;;;;;;19.13;14.00;;;;;;;5.62;84.73;98053.06;10290813;28;20057;-63
2022/09/23 23:52:26;;;;;;;25.75;16.23;;;;;;;5.61;84.45;98055.59;10291543;28;20448;-62